createdAt,value
2023-05-04T17:50:19.932Z,13.42
2023-05-04T17:52:54.971Z,13.35
2023-05-04T17:55:27.312Z,13.29
2023-05-04T17:58:01.354Z,13.25
2023-05-04T18:21:58.034Z,12.98
2023-05-04T18:24:32.610Z,12.80
2023-05-04T18:27:03.795Z,12.76
2023-05-04T18:29:35.268Z,12.70
2023-05-04T18:32:15.821Z,12.68
2023-05-04T18:34:50.789Z,12.65
2023-05-04T18:37:23.306Z,12.62
2023-05-04T18:39:56.677Z,12.58
2023-05-04T18:42:28.355Z,12.53
2023-05-04T18:44:59.862Z,12.47
2023-05-04T18:47:35.755Z,12.43
2023-05-04T18:50:08.625Z,12.42
2023-05-04T19:01:23.494Z,12.45
2023-05-04T19:04:02.174Z,12.30
2023-05-04T19:06:34.330Z,12.20
2023-05-04T19:09:08.205Z,12.14
2023-05-04T19:14:47.086Z,12.00
2023-05-04T19:17:21.128Z,11.93
2023-05-04T19:19:52.896Z,11.85
2023-05-04T19:22:26.538Z,11.80
2023-05-04T19:25:00.191Z,11.78
2023-05-04T19:27:31.928Z,11.73
2023-05-04T19:30:05.756Z,11.70
2023-05-04T19:32:41.793Z,11.65
2023-05-04T19:35:14.696Z,11.58
2023-05-04T19:37:49.640Z,11.53
2023-05-04T19:40:22.802Z,11.49
2023-05-04T19:42:56.627Z,11.43
2023-05-04T19:45:28.368Z,11.38
2023-05-04T19:48:00.418Z,11.32
2023-05-04T19:50:32.092Z,11.22
2023-05-04T19:53:04.361Z,11.14
2023-05-04T19:55:37.042Z,11.05
2023-05-04T19:58:10.292Z,11.02
2023-05-04T20:00:42.017Z,10.96
2023-05-04T20:03:13.529Z,10.91
2023-05-04T20:05:46.970Z,10.86
2023-05-04T20:08:21.688Z,10.75
2023-05-04T20:10:53.368Z,10.68
2023-05-04T20:13:28.514Z,10.54
2023-05-04T20:16:01.767Z,10.63
2023-05-04T20:18:36.708Z,10.63
2023-05-04T20:21:13.821Z,10.66
2023-05-04T20:23:54.855Z,10.67
2023-05-04T20:26:51.666Z,10.70
2023-05-04T20:29:23.398Z,10.70
2023-05-04T20:32:01.663Z,10.68
2023-05-04T20:34:39.051Z,10.68
2023-05-04T20:37:10.840Z,10.66
2023-05-04T20:39:44.727Z,10.64
2023-05-04T20:42:16.450Z,10.61
2023-05-04T20:44:51.566Z,10.55
2023-05-04T20:47:26.496Z,10.46
2023-05-04T20:50:06.933Z,10.38
2023-05-04T20:52:43.486Z,10.32
2023-05-04T20:55:15.626Z,10.33
2023-05-04T20:57:48.433Z,10.33
2023-05-04T21:00:22.067Z,10.33
2023-05-04T21:05:44.027Z,10.35
2023-05-04T21:08:18.773Z,10.22
2023-05-04T21:10:53.678Z,10.20
2023-05-04T21:13:26.967Z,10.18
2023-05-04T21:15:59.888Z,10.20
2023-05-04T21:18:36.426Z,10.22
2023-05-04T21:21:14.086Z,10.24
2023-05-04T21:23:56.177Z,10.26
2023-05-04T21:26:31.688Z,10.28
2023-05-04T21:29:08.893Z,10.27
2023-05-04T21:32:07.538Z,10.23
2023-05-04T21:34:45.520Z,10.21
2023-05-04T21:37:20.103Z,10.17
2023-05-04T21:39:55.898Z,10.14
2023-05-04T21:42:30.655Z,10.14
2023-05-04T21:45:02.964Z,10.06
2023-05-04T21:47:36.429Z,9.95
2023-05-04T21:50:09.543Z,9.85
2023-05-04T21:52:41.823Z,9.76
2023-05-04T21:55:14.195Z,9.73
2023-05-04T21:57:51.469Z,9.70
2023-05-04T22:00:29.111Z,9.64
2023-05-04T22:03:01.742Z,9.63
2023-05-04T22:05:36.405Z,9.67
2023-05-04T22:08:13.626Z,9.68
2023-05-04T22:10:48.447Z,9.73
2023-05-04T22:13:22.372Z,9.82
2023-05-04T22:15:56.913Z,9.85
2023-05-04T22:18:33.250Z,9.86
2023-05-04T22:21:15.049Z,9.87
2023-05-04T22:23:48.706Z,9.83
2023-05-04T22:26:23.398Z,9.80
2023-05-04T22:29:05.411Z,9.76
2023-05-04T22:31:40.074Z,9.75
2023-05-04T22:34:19.152Z,9.74
2023-05-04T22:36:54.771Z,9.73
2023-05-04T22:39:36.138Z,9.74
2023-05-04T22:42:09.069Z,9.74
2023-05-04T22:44:41.854Z,9.76
2023-05-04T22:47:14.777Z,9.74
2023-05-04T22:49:52.165Z,9.67
2023-05-04T22:52:24.815Z,9.55
2023-05-04T22:54:58.558Z,9.47
2023-05-04T22:57:30.987Z,9.46
2023-05-04T23:00:04.308Z,9.51
2023-05-04T23:02:41.686Z,9.54
2023-05-04T23:05:14.357Z,9.57
2023-05-04T23:07:48.489Z,9.57
2023-05-04T23:10:21.171Z,9.59
2023-05-04T23:12:53.566Z,9.63
2023-05-04T23:15:25.852Z,9.62
2023-05-04T23:17:58.029Z,9.55
2023-05-04T23:20:30.365Z,9.49
2023-05-04T23:23:02.492Z,9.20
2023-05-04T23:25:34.822Z,9.25
2023-05-04T23:28:07.164Z,9.19
2023-05-04T23:30:39.323Z,9.13
2023-05-04T23:33:12.617Z,9.05
2023-05-04T23:35:44.658Z,8.94
2023-05-04T23:38:16.694Z,8.82
2023-05-04T23:40:48.788Z,8.70
2023-05-04T23:43:21.338Z,8.57
2023-05-04T23:46:01.188Z,8.40
2023-05-04T23:48:33.826Z,8.24
2023-05-04T23:51:06.499Z,8.12
2023-05-04T23:53:38.550Z,8.02
2023-05-04T23:56:10.629Z,7.94
2023-05-04T23:58:42.982Z,7.87
